sensor_id;sensor_type;location;lat;lon;timestamp;temperature;humidity
60455;DHT22;54989;53.398;6.564;2022-09-03T00:02:41;22.70;58.00
60455;DHT22;54989;53.398;6.564;2022-09-03T00:08:05;22.70;58.30
60455;DHT22;54989;53.398;6.564;2022-09-03T00:10:55;22.70;58.10
60455;DHT22;54989;53.398;6.564;2022-09-03T00:13:41;22.70;57.90
60455;DHT22;54989;53.398;6.564;2022-09-03T00:16:12;22.70;57.90
60455;DHT22;54989;53.398;6.564;2022-09-03T00:18:45;22.70;58.00
60455;DHT22;54989;53.398;6.564;2022-09-03T00:21:18;22.70;58.00
60455;DHT22;54989;53.398;6.564;2022-09-03T00:23:49;22.60;58.00
60455;DHT22;54989;53.398;6.564;2022-09-03T00:26:24;22.60;58.00
60455;DHT22;54989;53.398;6.564;2022-09-03T00:28:59;22.60;57.70
60455;DHT22;54989;53.398;6.564;2022-09-03T00:31:39;22.60;58.00
60455;DHT22;54989;53.398;6.564;2022-09-03T00:34:31;22.70;58.00
60455;DHT22;54989;53.398;6.564;2022-09-03T00:37:01;22.60;57.90
60455;DHT22;54989;53.398;6.564;2022-09-03T00:39:30;22.60;57.70
60455;DHT22;54989;53.398;6.564;2022-09-03T00:50:58;22.60;57.90
60455;DHT22;54989;53.398;6.564;2022-09-03T01:13:40;22.50;58.00
60455;DHT22;54989;53.398;6.564;2022-09-03T01:16:46;22.50;58.00
60455;DHT22;54989;53.398;6.564;2022-09-03T01:30:12;22.50;58.10
60455;DHT22;54989;53.398;6.564;2022-09-03T01:35:56;22.50;58.10
60455;DHT22;54989;53.398;6.564;2022-09-03T01:39:11;22.40;58.10
60455;DHT22;54989;53.398;6.564;2022-09-03T01:47:20;22.40;58.20
60455;DHT22;54989;53.398;6.564;2022-09-03T01:50:09;22.40;58.20
60455;DHT22;54989;53.398;6.564;2022-09-03T01:55:35;22.40;58.20
60455;DHT22;54989;53.398;6.564;2022-09-03T02:00:43;22.40;58.30
60455;DHT22;54989;53.398;6.564;2022-09-03T02:03:13;22.40;58.40
60455;DHT22;54989;53.398;6.564;2022-09-03T02:05:41;22.40;58.30
60455;DHT22;54989;53.398;6.564;2022-09-03T02:08:10;22.40;58.40
60455;DHT22;54989;53.398;6.564;2022-09-03T02:10:46;22.40;58.30
60455;DHT22;54989;53.398;6.564;2022-09-03T02:15:48;22.40;58.30
60455;DHT22;54989;53.398;6.564;2022-09-03T02:18:19;22.40;58.40
60455;DHT22;54989;53.398;6.564;2022-09-03T02:20:52;22.40;58.30
60455;DHT22;54989;53.398;6.564;2022-09-03T02:23:21;22.40;58.40
60455;DHT22;54989;53.398;6.564;2022-09-03T02:25:59;22.40;58.50
60455;DHT22;54989;53.398;6.564;2022-09-03T02:28:28;22.30;58.40
60455;DHT22;54989;53.398;6.564;2022-09-03T02:30:58;22.30;58.40
60455;DHT22;54989;53.398;6.564;2022-09-03T02:33:34;22.30;58.50
60455;DHT22;54989;53.398;6.564;2022-09-03T02:36:05;22.30;58.50
60455;DHT22;54989;53.398;6.564;2022-09-03T02:38:33;22.30;58.50
60455;DHT22;54989;53.398;6.564;2022-09-03T02:41:02;22.30;58.60
60455;DHT22;54989;53.398;6.564;2022-09-03T02:46:20;22.30;58.50
60455;DHT22;54989;53.398;6.564;2022-09-03T02:48:47;22.30;58.80
60455;DHT22;54989;53.398;6.564;2022-09-03T02:51:15;22.30;58.70
60455;DHT22;54989;53.398;6.564;2022-09-03T02:53:43;22.30;58.50
60455;DHT22;54989;53.398;6.564;2022-09-03T02:56:11;22.20;58.70
60455;DHT22;54989;53.398;6.564;2022-09-03T02:58:38;22.30;58.60
60455;DHT22;54989;53.398;6.564;2022-09-03T03:01:07;22.30;58.60
60455;DHT22;54989;53.398;6.564;2022-09-03T03:03:34;22.20;58.70
60455;DHT22;54989;53.398;6.564;2022-09-03T03:06:04;22.30;58.70
60455;DHT22;54989;53.398;6.564;2022-09-03T03:08:33;22.20;58.70
60455;DHT22;54989;53.398;6.564;2022-09-03T03:11:01;22.20;58.70
60455;DHT22;54989;53.398;6.564;2022-09-03T03:13:30;22.20;58.80
60455;DHT22;54989;53.398;6.564;2022-09-03T03:16:03;22.20;58.80
60455;DHT22;54989;53.398;6.564;2022-09-03T03:18:32;22.20;58.80
60455;DHT22;54989;53.398;6.564;2022-09-03T03:21:09;22.20;58.80
60455;DHT22;54989;53.398;6.564;2022-09-03T03:23:37;22.20;58.80
60455;DHT22;54989;53.398;6.564;2022-09-03T03:26:08;22.20;58.90
60455;DHT22;54989;53.398;6.564;2022-09-03T03:28:36;22.20;58.90
60455;DHT22;54989;53.398;6.564;2022-09-03T03:31:07;22.10;58.80
60455;DHT22;54989;53.398;6.564;2022-09-03T03:33:36;22.10;58.80
60455;DHT22;54989;53.398;6.564;2022-09-03T03:36:05;22.10;58.70
60455;DHT22;54989;53.398;6.564;2022-09-03T03:38:34;22.10;58.80
60455;DHT22;54989;53.398;6.564;2022-09-03T03:41:11;22.10;58.70
60455;DHT22;54989;53.398;6.564;2022-09-03T03:43:39;22.10;58.70
60455;DHT22;54989;53.398;6.564;2022-09-03T03:46:07;22.10;58.80
60455;DHT22;54989;53.398;6.564;2022-09-03T03:48:36;22.10;58.80
60455;DHT22;54989;53.398;6.564;2022-09-03T03:51:06;22.10;58.70
60455;DHT22;54989;53.398;6.564;2022-09-03T03:53:36;22.10;58.70
60455;DHT22;54989;53.398;6.564;2022-09-03T03:56:10;22.10;58.70
60455;DHT22;54989;53.398;6.564;2022-09-03T03:58:40;22.10;58.70
60455;DHT22;54989;53.398;6.564;2022-09-03T04:01:18;22.00;58.60
60455;DHT22;54989;53.398;6.564;2022-09-03T04:03:46;22.10;58.70
60455;DHT22;54989;53.398;6.564;2022-09-03T04:06:15;22.00;58.60
60455;DHT22;54989;53.398;6.564;2022-09-03T04:08:45;22.00;58.60
60455;DHT22;54989;53.398;6.564;2022-09-03T04:11:20;22.00;58.60
60455;DHT22;54989;53.398;6.564;2022-09-03T04:13:49;22.00;58.60
60455;DHT22;54989;53.398;6.564;2022-09-03T04:16:19;22.00;58.60
60455;DHT22;54989;53.398;6.564;2022-09-03T04:18:48;22.00;58.50
60455;DHT22;54989;53.398;6.564;2022-09-03T04:21:18;22.00;58.50
60455;DHT22;54989;53.398;6.564;2022-09-03T04:23:47;22.00;58.50
60455;DHT22;54989;53.398;6.564;2022-09-03T04:26:17;22.00;58.60
60455;DHT22;54989;53.398;6.564;2022-09-03T04:28:45;22.00;58.50
60455;DHT22;54989;53.398;6.564;2022-09-03T04:31:15;22.00;58.50
60455;DHT22;54989;53.398;6.564;2022-09-03T04:33:44;21.90;59.00
60455;DHT22;54989;53.398;6.564;2022-09-03T04:36:17;21.90;58.50
60455;DHT22;54989;53.398;6.564;2022-09-03T04:38:48;21.90;58.40
60455;DHT22;54989;53.398;6.564;2022-09-03T04:41:19;21.90;58.50
60455;DHT22;54989;53.398;6.564;2022-09-03T04:43:47;21.90;58.50
60455;DHT22;54989;53.398;6.564;2022-09-03T04:46:18;21.90;58.50
60455;DHT22;54989;53.398;6.564;2022-09-03T04:48:51;21.90;58.60
60455;DHT22;54989;53.398;6.564;2022-09-03T04:51:21;21.90;58.50
60455;DHT22;54989;53.398;6.564;2022-09-03T04:53:57;21.90;58.50
60455;DHT22;54989;53.398;6.564;2022-09-03T04:56:27;21.90;58.40
60455;DHT22;54989;53.398;6.564;2022-09-03T04:58:58;21.90;58.40
60455;DHT22;54989;53.398;6.564;2022-09-03T05:01:29;21.90;58.50
60455;DHT22;54989;53.398;6.564;2022-09-03T05:03:58;21.90;58.40
60455;DHT22;54989;53.398;6.564;2022-09-03T05:06:27;21.90;58.40
60455;DHT22;54989;53.398;6.564;2022-09-03T05:08:55;21.90;58.40
60455;DHT22;54989;53.398;6.564;2022-09-03T05:11:24;21.80;58.30
60455;DHT22;54989;53.398;6.564;2022-09-03T05:13:53;21.80;58.30
60455;DHT22;54989;53.398;6.564;2022-09-03T05:16:22;21.90;58.40
60455;DHT22;54989;53.398;6.564;2022-09-03T05:18:55;21.80;58.20
60455;DHT22;54989;53.398;6.564;2022-09-03T05:21:23;21.80;58.30
60455;DHT22;54989;53.398;6.564;2022-09-03T05:23:51;21.80;58.30
60455;DHT22;54989;53.398;6.564;2022-09-03T05:26:28;21.80;58.30
60455;DHT22;54989;53.398;6.564;2022-09-03T05:29:00;21.90;58.40
60455;DHT22;54989;53.398;6.564;2022-09-03T05:31:29;21.80;58.30
60455;DHT22;54989;53.398;6.564;2022-09-03T05:34:01;21.80;58.30
60455;DHT22;54989;53.398;6.564;2022-09-03T05:36:30;21.80;58.40
60455;DHT22;54989;53.398;6.564;2022-09-03T05:38:58;21.80;58.40
60455;DHT22;54989;53.398;6.564;2022-09-03T05:41:27;21.80;58.40
60455;DHT22;54989;53.398;6.564;2022-09-03T05:43:55;21.80;58.40
60455;DHT22;54989;53.398;6.564;2022-09-03T05:46:30;21.70;58.30
60455;DHT22;54989;53.398;6.564;2022-09-03T05:49:00;21.70;58.30
60455;DHT22;54989;53.398;6.564;2022-09-03T05:51:29;21.80;58.40
60455;DHT22;54989;53.398;6.564;2022-09-03T05:53:57;21.70;58.30
60455;DHT22;54989;53.398;6.564;2022-09-03T05:56:27;21.70;58.40
60455;DHT22;54989;53.398;6.564;2022-09-03T05:58:59;21.80;58.40
60455;DHT22;54989;53.398;6.564;2022-09-03T06:01:31;21.80;58.40
60455;DHT22;54989;53.398;6.564;2022-09-03T06:04:06;21.70;58.20
60455;DHT22;54989;53.398;6.564;2022-09-03T06:06:38;21.70;58.30
60455;DHT22;54989;53.398;6.564;2022-09-03T06:09:08;21.70;58.30
60455;DHT22;54989;53.398;6.564;2022-09-03T06:11:37;21.70;58.20
60455;DHT22;54989;53.398;6.564;2022-09-03T06:14:10;21.70;58.10
60455;DHT22;54989;53.398;6.564;2022-09-03T06:16:40;21.70;58.20
60455;DHT22;54989;53.398;6.564;2022-09-03T06:19:09;21.70;58.10
60455;DHT22;54989;53.398;6.564;2022-09-03T06:21:42;21.70;58.00
60455;DHT22;54989;53.398;6.564;2022-09-03T06:24:11;21.60;57.90
60455;DHT22;54989;53.398;6.564;2022-09-03T06:26:41;21.60;58.00
60455;DHT22;54989;53.398;6.564;2022-09-03T06:29:09;21.60;57.90
60455;DHT22;54989;53.398;6.564;2022-09-03T06:31:38;21.60;57.90
60455;DHT22;54989;53.398;6.564;2022-09-03T06:34:06;21.60;57.90
60455;DHT22;54989;53.398;6.564;2022-09-03T06:36:34;21.60;58.10
60455;DHT22;54989;53.398;6.564;2022-09-03T06:39:02;21.60;57.90
60455;DHT22;54989;53.398;6.564;2022-09-03T06:41:31;21.70;57.90
60455;DHT22;54989;53.398;6.564;2022-09-03T06:44:02;21.60;57.70
60455;DHT22;54989;53.398;6.564;2022-09-03T06:46:34;21.60;57.70
60455;DHT22;54989;53.398;6.564;2022-09-03T06:49:02;21.60;57.80
60455;DHT22;54989;53.398;6.564;2022-09-03T06:51:31;21.60;57.60
60455;DHT22;54989;53.398;6.564;2022-09-03T06:54:04;21.60;57.70
60455;DHT22;54989;53.398;6.564;2022-09-03T06:56:33;21.60;57.60
60455;DHT22;54989;53.398;6.564;2022-09-03T06:59:11;21.60;57.60
60455;DHT22;54989;53.398;6.564;2022-09-03T07:01:39;21.60;57.50
60455;DHT22;54989;53.398;6.564;2022-09-03T07:04:11;21.60;57.70
60455;DHT22;54989;53.398;6.564;2022-09-03T07:06:40;21.60;57.60
60455;DHT22;54989;53.398;6.564;2022-09-03T07:09:10;21.60;57.70
60455;DHT22;54989;53.398;6.564;2022-09-03T07:11:38;21.60;57.60
60455;DHT22;54989;53.398;6.564;2022-09-03T07:14:15;21.60;57.60
60455;DHT22;54989;53.398;6.564;2022-09-03T07:16:43;21.60;57.50
60455;DHT22;54989;53.398;6.564;2022-09-03T07:19:12;21.60;57.60
60455;DHT22;54989;53.398;6.564;2022-09-03T07:21:41;21.60;57.50
60455;DHT22;54989;53.398;6.564;2022-09-03T07:24:16;21.60;57.50
60455;DHT22;54989;53.398;6.564;2022-09-03T07:26:44;21.60;57.60
60455;DHT22;54989;53.398;6.564;2022-09-03T07:29:15;21.60;57.70
60455;DHT22;54989;53.398;6.564;2022-09-03T07:31:48;21.60;57.70
60455;DHT22;54989;53.398;6.564;2022-09-03T07:34:19;21.60;57.80
60455;DHT22;54989;53.398;6.564;2022-09-03T07:36:48;21.60;57.90
60455;DHT22;54989;53.398;6.564;2022-09-03T07:39:18;21.60;57.90
60455;DHT22;54989;53.398;6.564;2022-09-03T07:41:46;21.60;57.90
60455;DHT22;54989;53.398;6.564;2022-09-03T07:44:15;21.60;57.90
60455;DHT22;54989;53.398;6.564;2022-09-03T07:46:46;21.60;57.90
60455;DHT22;54989;53.398;6.564;2022-09-03T07:49:16;21.60;57.90
60455;DHT22;54989;53.398;6.564;2022-09-03T07:51:43;21.60;57.90
60455;DHT22;54989;53.398;6.564;2022-09-03T07:54:12;21.60;57.80
60455;DHT22;54989;53.398;6.564;2022-09-03T07:56:40;21.60;57.80
60455;DHT22;54989;53.398;6.564;2022-09-03T07:59:08;21.60;57.90
60455;DHT22;54989;53.398;6.564;2022-09-03T08:01:37;21.60;57.90
60455;DHT22;54989;53.398;6.564;2022-09-03T08:04:08;21.60;58.00
60455;DHT22;54989;53.398;6.564;2022-09-03T08:06:37;21.60;58.00
60455;DHT22;54989;53.398;6.564;2022-09-03T08:09:08;21.60;58.10
60455;DHT22;54989;53.398;6.564;2022-09-03T08:11:39;21.60;58.00
60455;DHT22;54989;53.398;6.564;2022-09-03T08:14:09;21.60;58.10
60455;DHT22;54989;53.398;6.564;2022-09-03T08:16:38;21.60;58.10
60455;DHT22;54989;53.398;6.564;2022-09-03T08:19:07;21.60;58.10
60455;DHT22;54989;53.398;6.564;2022-09-03T08:21:35;21.60;58.20
60455;DHT22;54989;53.398;6.564;2022-09-03T08:24:03;21.60;58.30
60455;DHT22;54989;53.398;6.564;2022-09-03T08:26:34;21.60;58.30
60455;DHT22;54989;53.398;6.564;2022-09-03T08:29:02;21.70;58.00
60455;DHT22;54989;53.398;6.564;2022-09-03T08:31:32;21.70;57.60
60455;DHT22;54989;53.398;6.564;2022-09-03T08:34:01;21.70;57.10
60455;DHT22;54989;53.398;6.564;2022-09-03T08:36:35;21.70;56.70
60455;DHT22;54989;53.398;6.564;2022-09-03T08:39:06;21.70;57.30
60455;DHT22;54989;53.398;6.564;2022-09-03T08:52:46;21.70;57.70
60455;DHT22;54989;53.398;6.564;2022-09-03T08:55:30;21.70;57.80
60455;DHT22;54989;53.398;6.564;2022-09-03T08:58:14;21.70;57.70
60455;DHT22;54989;53.398;6.564;2022-09-03T09:06:50;21.80;57.30
60455;DHT22;54989;53.398;6.564;2022-09-03T09:09:38;21.80;57.20
60455;DHT22;54989;53.398;6.564;2022-09-03T09:12:34;21.80;57.20
60455;DHT22;54989;53.398;6.564;2022-09-03T09:15:29;21.90;56.50
60455;DHT22;54989;53.398;6.564;2022-09-03T09:23:05;21.90;56.40
60455;DHT22;54989;53.398;6.564;2022-09-03T09:25:33;21.90;56.30
60455;DHT22;54989;53.398;6.564;2022-09-03T09:28:23;21.90;56.20
60455;DHT22;54989;53.398;6.564;2022-09-03T09:30:55;21.90;56.10
60455;DHT22;54989;53.398;6.564;2022-09-03T09:33:23;21.90;56.20
60455;DHT22;54989;53.398;6.564;2022-09-03T09:35:51;21.90;55.90
60455;DHT22;54989;53.398;6.564;2022-09-03T09:38:38;21.90;56.00
60455;DHT22;54989;53.398;6.564;2022-09-03T09:41:16;21.90;56.10
60455;DHT22;54989;53.398;6.564;2022-09-03T09:43:59;21.90;55.80
60455;DHT22;54989;53.398;6.564;2022-09-03T09:52:09;21.90;56.10
60455;DHT22;54989;53.398;6.564;2022-09-03T09:54:43;22.00;56.00
60455;DHT22;54989;53.398;6.564;2022-09-03T09:57:23;22.00;55.80
60455;DHT22;54989;53.398;6.564;2022-09-03T10:00:23;22.00;55.70
60455;DHT22;54989;53.398;6.564;2022-09-03T10:02:53;22.00;55.30
60455;DHT22;54989;53.398;6.564;2022-09-03T10:07:59;22.00;55.00
60455;DHT22;54989;53.398;6.564;2022-09-03T10:10:28;22.00;55.60
60455;DHT22;54989;53.398;6.564;2022-09-03T10:13:13;22.00;54.80
60455;DHT22;54989;53.398;6.564;2022-09-03T10:19:15;22.00;54.90
60455;DHT22;54989;53.398;6.564;2022-09-03T10:22:23;22.10;55.00
60455;DHT22;54989;53.398;6.564;2022-09-03T10:27:18;22.10;54.40
60455;DHT22;54989;53.398;6.564;2022-09-03T10:29:46;22.10;54.10
60455;DHT22;54989;53.398;6.564;2022-09-03T10:32:40;22.10;54.60
60455;DHT22;54989;53.398;6.564;2022-09-03T10:35:31;22.10;54.10
60455;DHT22;54989;53.398;6.564;2022-09-03T10:46:50;22.20;53.80
60455;DHT22;54989;53.398;6.564;2022-09-03T10:57:39;22.20;53.20
60455;DHT22;54989;53.398;6.564;2022-09-03T11:00:12;22.20;53.30
60455;DHT22;54989;53.398;6.564;2022-09-03T11:03:01;22.30;53.10
60455;DHT22;54989;53.398;6.564;2022-09-03T11:05:47;22.30;53.20
60455;DHT22;54989;53.398;6.564;2022-09-03T11:08:40;22.40;53.50
60455;DHT22;54989;53.398;6.564;2022-09-03T11:11:27;22.40;52.90
60455;DHT22;54989;53.398;6.564;2022-09-03T11:14:08;22.40;52.60
60455;DHT22;54989;53.398;6.564;2022-09-03T11:16:44;22.40;52.90
60455;DHT22;54989;53.398;6.564;2022-09-03T11:19:16;22.40;52.30
60455;DHT22;54989;53.398;6.564;2022-09-03T11:21:45;22.50;52.30
60455;DHT22;54989;53.398;6.564;2022-09-03T11:24:26;22.50;52.20
60455;DHT22;54989;53.398;6.564;2022-09-03T11:27:00;22.50;51.90
60455;DHT22;54989;53.398;6.564;2022-09-03T11:29:41;22.50;52.00
60455;DHT22;54989;53.398;6.564;2022-09-03T11:32:21;22.60;51.80
60455;DHT22;54989;53.398;6.564;2022-09-03T11:34:52;22.60;51.90
60455;DHT22;54989;53.398;6.564;2022-09-03T11:37:23;22.60;52.10
60455;DHT22;54989;53.398;6.564;2022-09-03T11:42:34;22.70;52.50
60455;DHT22;54989;53.398;6.564;2022-09-03T11:45:33;22.70;52.20
60455;DHT22;54989;53.398;6.564;2022-09-03T11:48:10;22.70;51.60
60455;DHT22;54989;53.398;6.564;2022-09-03T11:50:52;22.70;51.60
60455;DHT22;54989;53.398;6.564;2022-09-03T11:53:25;22.70;51.00
60455;DHT22;54989;53.398;6.564;2022-09-03T11:56:11;22.80;51.10
60455;DHT22;54989;53.398;6.564;2022-09-03T11:58:42;22.80;51.00
60455;DHT22;54989;53.398;6.564;2022-09-03T12:01:15;22.80;51.10
60455;DHT22;54989;53.398;6.564;2022-09-03T12:04:00;22.80;50.90
60455;DHT22;54989;53.398;6.564;2022-09-03T12:19:52;22.90;51.50
60455;DHT22;54989;53.398;6.564;2022-09-03T12:22:26;22.90;51.60
60455;DHT22;54989;53.398;6.564;2022-09-03T12:24:55;23.00;51.30
60455;DHT22;54989;53.398;6.564;2022-09-03T12:27:43;23.00;51.40
60455;DHT22;54989;53.398;6.564;2022-09-03T12:30:20;23.00;51.50
60455;DHT22;54989;53.398;6.564;2022-09-03T12:32:49;23.00;51.00
60455;DHT22;54989;53.398;6.564;2022-09-03T12:35:20;23.00;50.90
60455;DHT22;54989;53.398;6.564;2022-09-03T12:38:08;23.10;52.40
60455;DHT22;54989;53.398;6.564;2022-09-03T12:40:44;23.10;52.90
60455;DHT22;54989;53.398;6.564;2022-09-03T12:43:35;23.10;52.50
60455;DHT22;54989;53.398;6.564;2022-09-03T12:46:13;23.10;53.00
60455;DHT22;54989;53.398;6.564;2022-09-03T12:49:02;23.10;53.40
60455;DHT22;54989;53.398;6.564;2022-09-03T12:51:56;23.20;53.60
60455;DHT22;54989;53.398;6.564;2022-09-03T12:54:33;23.20;53.40
60455;DHT22;54989;53.398;6.564;2022-09-03T12:57:01;23.20;53.30
60455;DHT22;54989;53.398;6.564;2022-09-03T12:59:32;23.20;52.70
60455;DHT22;54989;53.398;6.564;2022-09-03T13:02:08;23.20;52.80
60455;DHT22;54989;53.398;6.564;2022-09-03T13:04:38;23.20;52.60
60455;DHT22;54989;53.398;6.564;2022-09-03T13:07:19;23.20;52.80
60455;DHT22;54989;53.398;6.564;2022-09-03T13:09:49;23.30;52.30
60455;DHT22;54989;53.398;6.564;2022-09-03T13:12:21;23.30;53.10
60455;DHT22;54989;53.398;6.564;2022-09-03T13:14:52;23.30;53.00
60455;DHT22;54989;53.398;6.564;2022-09-03T13:17:51;23.30;52.40
60455;DHT22;54989;53.398;6.564;2022-09-03T13:20:26;23.30;53.60
60455;DHT22;54989;53.398;6.564;2022-09-03T13:26:01;23.30;53.00
60455;DHT22;54989;53.398;6.564;2022-09-03T13:31:50;23.40;53.10
60455;DHT22;54989;53.398;6.564;2022-09-03T13:34:53;23.40;52.80
60455;DHT22;54989;53.398;6.564;2022-09-03T13:37:32;23.50;53.00
60455;DHT22;54989;53.398;6.564;2022-09-03T13:40:50;23.50;52.70
60455;DHT22;54989;53.398;6.564;2022-09-03T13:43:31;23.50;52.80
60455;DHT22;54989;53.398;6.564;2022-09-03T13:46:23;23.50;52.50
60455;DHT22;54989;53.398;6.564;2022-09-03T13:48:58;23.50;53.10
60455;DHT22;54989;53.398;6.564;2022-09-03T13:51:53;23.50;52.80
60455;DHT22;54989;53.398;6.564;2022-09-03T13:54:47;23.50;53.00
60455;DHT22;54989;53.398;6.564;2022-09-03T14:00:09;23.50;52.60
60455;DHT22;54989;53.398;6.564;2022-09-03T14:02:49;23.50;52.70
60455;DHT22;54989;53.398;6.564;2022-09-03T14:05:42;23.50;52.70
60455;DHT22;54989;53.398;6.564;2022-09-03T14:13:59;23.60;52.80
60455;DHT22;54989;53.398;6.564;2022-09-03T14:25:37;23.60;52.80
60455;DHT22;54989;53.398;6.564;2022-09-03T14:28:40;23.60;53.00
60455;DHT22;54989;53.398;6.564;2022-09-03T14:31:18;23.60;52.80
60455;DHT22;54989;53.398;6.564;2022-09-03T14:39:46;23.70;48.60
60455;DHT22;54989;53.398;6.564;2022-09-03T14:45:31;23.70;47.00
60455;DHT22;54989;53.398;6.564;2022-09-03T14:54:22;23.80;49.50
60455;DHT22;54989;53.398;6.564;2022-09-03T14:57:20;23.70;51.00
60455;DHT22;54989;53.398;6.564;2022-09-03T15:08:07;23.80;51.80
60455;DHT22;54989;53.398;6.564;2022-09-03T15:10:45;23.80;52.30
60455;DHT22;54989;53.398;6.564;2022-09-03T15:13:30;23.80;52.30
60455;DHT22;54989;53.398;6.564;2022-09-03T15:27:24;23.90;51.90
60455;DHT22;54989;53.398;6.564;2022-09-03T15:30:09;23.90;52.90
60455;DHT22;54989;53.398;6.564;2022-09-03T15:38:03;23.90;53.10
60455;DHT22;54989;53.398;6.564;2022-09-03T15:40:50;23.90;53.20
60455;DHT22;54989;53.398;6.564;2022-09-03T15:43:28;23.90;53.20
60455;DHT22;54989;53.398;6.564;2022-09-03T15:45:59;24.00;53.30
60455;DHT22;54989;53.398;6.564;2022-09-03T15:51:32;24.00;53.50
60455;DHT22;54989;53.398;6.564;2022-09-03T15:56:39;24.00;54.20
60455;DHT22;54989;53.398;6.564;2022-09-03T16:02:20;24.00;54.00
60455;DHT22;54989;53.398;6.564;2022-09-03T16:05:17;24.00;54.10
60455;DHT22;54989;53.398;6.564;2022-09-03T16:08:09;24.10;54.20
60455;DHT22;54989;53.398;6.564;2022-09-03T16:13:55;24.00;53.70
60455;DHT22;54989;53.398;6.564;2022-09-03T16:22:28;23.90;53.30
60455;DHT22;54989;53.398;6.564;2022-09-03T16:25:00;23.90;53.40
60455;DHT22;54989;53.398;6.564;2022-09-03T16:30:08;23.90;52.70
60455;DHT22;54989;53.398;6.564;2022-09-03T16:41:07;23.90;52.80
60455;DHT22;54989;53.398;6.564;2022-09-03T16:46:17;23.80;52.60
60455;DHT22;54989;53.398;6.564;2022-09-03T16:49:12;23.80;52.90
60455;DHT22;54989;53.398;6.564;2022-09-03T17:09:32;23.80;53.50
60455;DHT22;54989;53.398;6.564;2022-09-03T17:19:58;23.70;53.70
60455;DHT22;54989;53.398;6.564;2022-09-03T17:25:28;23.70;54.20
60455;DHT22;54989;53.398;6.564;2022-09-03T17:31:06;23.70;54.50
60455;DHT22;54989;53.398;6.564;2022-09-03T17:36:14;23.70;54.60
60455;DHT22;54989;53.398;6.564;2022-09-03T17:41:58;23.80;54.70
60455;DHT22;54989;53.398;6.564;2022-09-03T17:47:39;23.80;54.90
60455;DHT22;54989;53.398;6.564;2022-09-03T17:52:54;23.70;54.70
60455;DHT22;54989;53.398;6.564;2022-09-03T18:01:03;23.70;55.20
60455;DHT22;54989;53.398;6.564;2022-09-03T18:04:00;23.70;55.10
60455;DHT22;54989;53.398;6.564;2022-09-03T18:09:29;23.70;55.20
60455;DHT22;54989;53.398;6.564;2022-09-03T18:12:36;23.70;55.50
60455;DHT22;54989;53.398;6.564;2022-09-03T18:21:01;23.70;55.50
60455;DHT22;54989;53.398;6.564;2022-09-03T18:24:07;23.70;55.80
60455;DHT22;54989;53.398;6.564;2022-09-03T18:26:59;23.70;55.50
60455;DHT22;54989;53.398;6.564;2022-09-03T18:32:42;23.70;55.50
60455;DHT22;54989;53.398;6.564;2022-09-03T18:35:30;23.60;55.60
60455;DHT22;54989;53.398;6.564;2022-09-03T18:38:27;23.60;55.60
60455;DHT22;54989;53.398;6.564;2022-09-03T18:44:55;23.60;55.50
60455;DHT22;54989;53.398;6.564;2022-09-03T18:57:47;23.70;55.80
60455;DHT22;54989;53.398;6.564;2022-09-03T19:00:40;23.70;55.80
60455;DHT22;54989;53.398;6.564;2022-09-03T19:09:57;23.70;55.80
60455;DHT22;54989;53.398;6.564;2022-09-03T19:13:03;23.70;55.80
60455;DHT22;54989;53.398;6.564;2022-09-03T19:16:08;23.70;55.90
60455;DHT22;54989;53.398;6.564;2022-09-03T19:22:27;23.70;55.70
60455;DHT22;54989;53.398;6.564;2022-09-03T19:25:15;23.70;55.70
60455;DHT22;54989;53.398;6.564;2022-09-03T19:28:10;23.70;55.80
60455;DHT22;54989;53.398;6.564;2022-09-03T19:52:53;23.80;55.80
60455;DHT22;54989;53.398;6.564;2022-09-03T19:55:56;23.70;55.80
60455;DHT22;54989;53.398;6.564;2022-09-03T19:58:51;23.70;55.80
60455;DHT22;54989;53.398;6.564;2022-09-03T20:01:39;23.70;55.90
60455;DHT22;54989;53.398;6.564;2022-09-03T20:04:40;23.70;55.80
60455;DHT22;54989;53.398;6.564;2022-09-03T20:07:29;23.70;55.80
60455;DHT22;54989;53.398;6.564;2022-09-03T20:10:17;23.70;55.90
60455;DHT22;54989;53.398;6.564;2022-09-03T20:15:41;23.80;55.70
60455;DHT22;54989;53.398;6.564;2022-09-03T20:29:01;23.80;55.80
60455;DHT22;54989;53.398;6.564;2022-09-03T20:37:44;23.70;55.50
60455;DHT22;54989;53.398;6.564;2022-09-03T20:40:33;23.70;55.70
60455;DHT22;54989;53.398;6.564;2022-09-03T20:52:01;23.60;55.50
60455;DHT22;54989;53.398;6.564;2022-09-03T20:54:47;23.50;55.50
60455;DHT22;54989;53.398;6.564;2022-09-03T21:00:08;23.50;55.70
60455;DHT22;54989;53.398;6.564;2022-09-03T21:08:22;23.50;55.60
60455;DHT22;54989;53.398;6.564;2022-09-03T21:19:38;23.40;55.50
60455;DHT22;54989;53.398;6.564;2022-09-03T21:25:04;23.30;55.40
60455;DHT22;54989;53.398;6.564;2022-09-03T21:27:57;23.40;55.30
60455;DHT22;54989;53.398;6.564;2022-09-03T21:30:26;23.40;55.40
60455;DHT22;54989;53.398;6.564;2022-09-03T21:33:03;23.30;55.20
60455;DHT22;54989;53.398;6.564;2022-09-03T21:35:37;23.40;55.40
60455;DHT22;54989;53.398;6.564;2022-09-03T21:38:07;23.30;55.30
60455;DHT22;54989;53.398;6.564;2022-09-03T21:43:36;23.30;55.30
60455;DHT22;54989;53.398;6.564;2022-09-03T21:46:19;23.30;55.30
60455;DHT22;54989;53.398;6.564;2022-09-03T21:49:00;23.30;55.40
60455;DHT22;54989;53.398;6.564;2022-09-03T21:51:30;23.30;55.30
60455;DHT22;54989;53.398;6.564;2022-09-03T21:54:08;23.30;55.60
60455;DHT22;54989;53.398;6.564;2022-09-03T22:04:32;23.20;55.10
60455;DHT22;54989;53.398;6.564;2022-09-03T22:12:37;23.20;55.40
60455;DHT22;54989;53.398;6.564;2022-09-03T22:15:08;23.20;55.60
60455;DHT22;54989;53.398;6.564;2022-09-03T22:17:47;23.20;55.20
60455;DHT22;54989;53.398;6.564;2022-09-03T22:20:23;23.20;55.10
60455;DHT22;54989;53.398;6.564;2022-09-03T22:22:58;23.10;55.10
60455;DHT22;54989;53.398;6.564;2022-09-03T22:25:38;23.10;55.10
60455;DHT22;54989;53.398;6.564;2022-09-03T22:28:16;23.10;54.90
60455;DHT22;54989;53.398;6.564;2022-09-03T22:33:37;23.10;55.10
60455;DHT22;54989;53.398;6.564;2022-09-03T22:36:26;23.10;55.00
60455;DHT22;54989;53.398;6.564;2022-09-03T22:41:54;23.10;55.00
60455;DHT22;54989;53.398;6.564;2022-09-03T22:47:44;23.00;55.20
60455;DHT22;54989;53.398;6.564;2022-09-03T22:50:21;23.00;55.20
60455;DHT22;54989;53.398;6.564;2022-09-03T22:55:40;23.00;55.40
60455;DHT22;54989;53.398;6.564;2022-09-03T22:58:18;23.00;55.20
60455;DHT22;54989;53.398;6.564;2022-09-03T23:00:56;23.00;55.40
60455;DHT22;54989;53.398;6.564;2022-09-03T23:03:33;23.00;55.60
60455;DHT22;54989;53.398;6.564;2022-09-03T23:06:06;23.00;56.20
60455;DHT22;54989;53.398;6.564;2022-09-03T23:08:42;22.90;55.10
60455;DHT22;54989;53.398;6.564;2022-09-03T23:14:08;23.00;55.50
60455;DHT22;54989;53.398;6.564;2022-09-03T23:19:57;22.90;55.30
60455;DHT22;54989;53.398;6.564;2022-09-03T23:25:02;22.90;55.20